Time;durP1;ratioP1;P1;durP2;ratioP2;P2;SDS_P1;SDS_P2;PMS_P1;PMS_P2;Temp;Humidity;BMP_temperature;BMP_pressure;BME280_temperature;BME280_humidity;BME280_pressure;Samples;Min_cycle;Max_cycle;Signal;HPM_P1;HPM_P2
2023/05/11 00:00:22;;;;;;;12.13;4.78;;;;;;;;;;6335036;28;20062;-77
2023/05/11 00:03:23;;;;;;;11.32;5.64;;;;;;;;;;6335449;28;20030;-77
2023/05/11 00:06:23;;;;;;;9.13;5.15;;;;;;;;;;6331711;28;20118;-77
2023/05/11 00:09:23;;;;;;;10.80;4.37;;;;;;;;;;6325314;28;20370;-77
2023/05/11 00:12:23;;;;;;;10.20;5.30;;;;;;;;;;6327314;28;20074;-77
2023/05/11 00:15:23;;;;;;;9.07;5.00;;;;;;;;;;6332745;28;20111;-77
2023/05/11 00:18:23;;;;;;;9.83;5.00;;;;;;;;;;6322548;28;20012;-77
2023/05/11 00:21:24;;;;;;;9.27;4.70;;;;;;;;;;6331013;28;20020;-77
2023/05/11 00:24:24;;;;;;;14.33;5.70;;;;;;;;;;6342791;28;20027;-77
2023/05/11 00:27:24;;;;;;;11.33;5.30;;;;;;;;;;6326734;28;20031;-77
2023/05/11 00:30:25;;;;;;;11.87;4.93;;;;;;;;;;6337694;28;20023;-77
2023/05/11 00:33:25;;;;;;;10.60;5.17;;;;;;;;;;6339905;28;20087;-77
2023/05/11 00:36:26;;;;;;;10.73;5.03;;;;;;;;;;6331102;28;20470;-77
2023/05/11 00:39:26;;;;;;;12.63;5.75;;;;;;;;;;6329230;28;20050;-77
2023/05/11 00:42:26;;;;;;;13.52;5.05;;;;;;;;;;6344781;28;20051;-77
2023/05/11 00:45:27;;;;;;;19.13;6.50;;;;;;;;;;6341408;28;20028;-77
2023/05/11 00:48:27;;;;;;;8.93;5.53;;;;;;;;;;6332528;28;20424;-77
2023/05/11 00:51:27;;;;;;;10.20;4.78;;;;;;;;;;6343761;28;20110;-77
2023/05/11 00:54:27;;;;;;;9.67;5.90;;;;;;;;;;6334348;28;20044;-78
2023/05/11 00:57:30;;;;;;;10.02;5.45;;;;;;;;;;6324290;28;20063;-77
2023/05/11 01:00:30;;;;;;;11.60;5.55;;;;;;;;;;6341935;28;20039;-77
2023/05/11 01:03:34;;;;;;;7.77;5.33;;;;;;;;;;6323280;28;20077;-77
2023/05/11 01:06:50;;;;;;;8.77;4.72;;;;;;;;;;6323876;28;20345;-77
2023/05/11 01:10:29;;;;;;;11.98;5.43;;;;;;;;;;6333707;28;20027;-78
2023/05/11 01:13:31;;;;;;;10.07;5.13;;;;;;;;;;6212724;28;20026;-78
2023/05/11 01:16:33;;;;;;;11.02;5.88;;;;;;;;;;6216186;28;20021;-77
2023/05/11 01:20:06;;;;;;;10.52;5.30;;;;;;;;;;6323529;28;20024;-77
2023/05/11 01:23:08;;;;;;;9.57;4.32;;;;;;;;;;6277258;28;20034;-77
2023/05/11 01:26:14;;;;;;;11.20;4.97;;;;;;;;;;6335410;28;20020;-78
2023/05/11 01:29:36;;;;;;;17.02;4.88;;;;;;;;;;6323488;28;20016;-78
2023/05/11 01:32:39;;;;;;;13.35;5.65;;;;;;;;;;6328950;28;20030;-76
2023/05/11 01:35:47;;;;;;;13.48;5.30;;;;;;;;;;6322502;28;20035;-76
2023/05/11 01:38:47;;;;;;;13.38;7.03;;;;;;;;;;6323466;28;20020;-75
2023/05/11 01:41:50;;;;;;;14.85;6.05;;;;;;;;;;6332513;28;20088;-76
2023/05/11 01:44:52;;;;;;;12.15;5.63;;;;;;;;;;6335800;28;20612;-76
2023/05/11 01:47:53;;;;;;;10.27;5.68;;;;;;;;;;6337972;28;20077;-76
2023/05/11 01:50:56;;;;;;;9.88;5.10;;;;;;;;;;6339090;28;20449;-76
2023/05/11 01:53:57;;;;;;;14.82;5.47;;;;;;;;;;6323697;28;20028;-76
2023/05/11 01:56:58;;;;;;;8.93;5.30;;;;;;;;;;6324801;28;20428;-76
2023/05/11 02:00:00;;;;;;;13.03;5.63;;;;;;;;;;6334377;28;20027;-76
2023/05/11 02:03:01;;;;;;;11.52;5.70;;;;;;;;;;6316419;28;20258;-76
2023/05/11 02:06:03;;;;;;;13.33;6.03;;;;;;;;;;6308837;28;20043;-76
2023/05/11 02:09:04;;;;;;;11.00;5.20;;;;;;;;;;6334176;28;20047;-76
2023/05/11 02:12:05;;;;;;;12.82;5.05;;;;;;;;;;6330346;28;20047;-78
2023/05/11 02:15:07;;;;;;;14.27;5.15;;;;;;;;;;6323875;28;20131;-78
2023/05/11 02:18:07;;;;;;;;;;;;;;;;;;6323363;28;20085;-78
2023/05/11 02:21:08;;;;;;;9.50;4.55;;;;;;;;;;6306179;28;20707;-78
2023/05/11 02:24:09;;;;;;;9.57;5.40;;;;;;;;;;6322407;28;20025;-78
2023/05/11 02:27:11;;;;;;;9.18;5.35;;;;;;;;;;6333333;28;20045;-78
2023/05/11 02:30:12;;;;;;;8.00;5.13;;;;;;;;;;6319693;28;20020;-78
2023/05/11 02:33:18;;;;;;;11.23;4.85;;;;;;;;;;6330669;28;20069;-77
2023/05/11 02:36:20;;;;;;;8.57;5.20;;;;;;;;;;6328798;28;20363;-77
2023/05/11 02:39:21;;;;;;;19.63;7.18;;;;;;;;;;6339976;28;20022;-77
2023/05/11 02:42:22;;;;;;;10.20;5.30;;;;;;;;;;6325404;28;20039;-77
2023/05/11 02:45:23;;;;;;;14.27;6.22;;;;;;;;;;6327312;28;20473;-77
2023/05/11 02:48:28;;;;;;;11.40;5.77;;;;;;;;;;6329180;28;20024;-77
2023/05/11 02:51:38;;;;;;;10.68;6.03;;;;;;;;;;6338812;27;20482;-77
2023/05/11 02:54:39;;;;;;;13.55;5.13;;;;;;;;;;6328536;28;20137;-77
2023/05/11 02:57:39;;;;;;;11.65;5.57;;;;;;;;;;6318443;28;20023;-77
2023/05/11 03:00:40;;;;;;;12.33;5.57;;;;;;;;;;6329837;28;20035;-77
2023/05/11 03:03:40;;;;;;;11.52;5.30;;;;;;;;;;6328864;28;20100;-77
2023/05/11 03:06:40;;;;;;;12.88;6.43;;;;;;;;;;6336916;27;20469;-77
2023/05/11 03:09:41;;;;;;;9.80;5.67;;;;;;;;;;6333205;28;20016;-77
2023/05/11 03:12:42;;;;;;;12.98;5.38;;;;;;;;;;6334534;28;20023;-77
2023/05/11 03:15:43;;;;;;;11.03;5.83;;;;;;;;;;6328382;28;20011;-78
2023/05/11 03:18:43;;;;;;;11.70;5.03;;;;;;;;;;6325938;28;20030;-77
2023/05/11 03:21:44;;;;;;;11.77;5.22;;;;;;;;;;6342557;28;20027;-77
2023/05/11 03:24:45;;;;;;;11.40;5.80;;;;;;;;;;6331654;28;20440;-77
2023/05/11 03:27:45;;;;;;;12.15;5.68;;;;;;;;;;6323020;28;20034;-77
2023/05/11 03:30:47;;;;;;;12.20;5.75;;;;;;;;;;6330826;28;20039;-77
2023/05/11 03:33:47;;;;;;;11.17;6.20;;;;;;;;;;6311587;28;20023;-77
2023/05/11 03:36:48;;;;;;;11.82;5.22;;;;;;;;;;6324242;28;20020;-78
2023/05/11 03:39:51;;;;;;;10.65;5.55;;;;;;;;;;6326820;28;20451;-77
2023/05/11 03:42:53;;;;;;;16.15;5.20;;;;;;;;;;6303839;28;20089;-77
2023/05/11 03:45:54;;;;;;;9.63;5.05;;;;;;;;;;6337489;28;20012;-77
2023/05/11 03:48:55;;;;;;;9.77;5.18;;;;;;;;;;6328436;28;20040;-78
2023/05/11 03:51:56;;;;;;;11.68;6.10;;;;;;;;;;6319471;28;20571;-77
2023/05/11 03:54:56;;;;;;;10.55;6.70;;;;;;;;;;6324901;28;20073;-76
2023/05/11 03:57:57;;;;;;;12.03;5.57;;;;;;;;;;6321340;28;20023;-76
2023/05/11 04:00:57;;;;;;;11.02;5.60;;;;;;;;;;6329346;28;20028;-76
2023/05/11 04:03:58;;;;;;;11.00;4.83;;;;;;;;;;6331072;28;20359;-76
2023/05/11 04:06:58;;;;;;;10.85;5.38;;;;;;;;;;6340179;27;20389;-76
2023/05/11 04:09:58;;;;;;;15.43;6.03;;;;;;;;;;6332659;28;20030;-76
2023/05/11 04:12:59;;;;;;;13.65;6.00;;;;;;;;;;6333806;28;20042;-76
2023/05/11 04:15:59;;;;;;;11.82;5.45;;;;;;;;;;6331602;28;20024;-76
2023/05/11 04:19:00;;;;;;;14.32;5.90;;;;;;;;;;6310028;28;20069;-76
2023/05/11 04:22:01;;;;;;;11.53;5.47;;;;;;;;;;6333310;27;20077;-75
2023/05/11 04:25:01;;;;;;;7.82;5.22;;;;;;;;;;6313071;28;20028;-76
2023/05/11 04:28:01;;;;;;;9.35;5.53;;;;;;;;;;6331167;28;20089;-76
2023/05/11 04:31:02;;;;;;;10.48;5.10;;;;;;;;;;6326501;28;20028;-76
2023/05/11 04:34:04;;;;;;;10.43;5.23;;;;;;;;;;6323275;28;20691;-76
2023/05/11 04:37:06;;;;;;;18.52;6.55;;;;;;;;;;6333947;28;20287;-76
2023/05/11 04:40:06;;;;;;;11.48;4.63;;;;;;;;;;6328802;27;20016;-76
2023/05/11 04:43:07;;;;;;;11.88;5.07;;;;;;;;;;6330885;28;20015;-76
2023/05/11 04:46:07;;;;;;;10.93;5.32;;;;;;;;;;6331305;27;20059;-76
2023/05/11 04:49:07;;;;;;;11.10;5.23;;;;;;;;;;6343631;28;20285;-75
2023/05/11 04:52:07;;;;;;;10.05;5.18;;;;;;;;;;6343509;27;20604;-75
2023/05/11 04:55:08;;;;;;;9.33;5.20;;;;;;;;;;6326388;27;20038;-75
2023/05/11 04:58:08;;;;;;;13.63;5.05;;;;;;;;;;6328955;28;20557;-75
2023/05/11 05:01:08;;;;;;;11.77;5.50;;;;;;;;;;6331032;27;20018;-76
2023/05/11 05:04:08;;;;;;;8.23;4.77;;;;;;;;;;6332718;28;20093;-76
2023/05/11 05:07:09;;;;;;;7.67;4.77;;;;;;;;;;6332617;28;20501;-78
2023/05/11 05:10:11;;;;;;;8.67;4.83;;;;;;;;;;6335213;28;20760;-76
2023/05/11 05:13:11;;;;;;;17.92;5.93;;;;;;;;;;6334247;28;20019;-76
2023/05/11 05:16:11;;;;;;;9.90;4.80;;;;;;;;;;6331268;28;20469;-76
2023/05/11 05:19:11;;;;;;;10.77;5.80;;;;;;;;;;6333166;28;20012;-75
2023/05/11 05:22:12;;;;;;;12.50;5.25;;;;;;;;;;6330920;27;20104;-76
2023/05/11 05:25:12;;;;;;;9.10;4.90;;;;;;;;;;6329360;28;20500;-76
2023/05/11 05:28:12;;;;;;;12.07;5.60;;;;;;;;;;6327707;28;20024;-78
2023/05/11 05:31:13;;;;;;;10.83;4.40;;;;;;;;;;6331220;28;20470;-78
2023/05/11 05:34:13;;;;;;;9.57;5.57;;;;;;;;;;6330609;28;20102;-77
2023/05/11 05:37:13;;;;;;;14.37;6.07;;;;;;;;;;6340741;28;20110;-77
2023/05/11 05:40:14;;;;;;;7.60;4.13;;;;;;;;;;6340971;28;20022;-78
2023/05/11 05:43:14;;;;;;;9.80;4.70;;;;;;;;;;6327468;28;20016;-78
2023/05/11 05:46:14;;;;;;;10.47;5.27;;;;;;;;;;6336821;28;20023;-77
2023/05/11 05:49:15;;;;;;;8.43;4.87;;;;;;;;;;6329686;28;20503;-78
2023/05/11 05:52:15;;;;;;;8.10;5.17;;;;;;;;;;6323986;28;20028;-77
2023/05/11 05:55:15;;;;;;;12.07;5.00;;;;;;;;;;6340556;28;20028;-78
2023/05/11 05:58:15;;;;;;;9.23;4.50;;;;;;;;;;6335406;28;20512;-76
2023/05/11 06:01:16;;;;;;;7.60;4.47;;;;;;;;;;6311412;28;20118;-76
2023/05/11 06:04:16;;;;;;;6.70;4.05;;;;;;;;;;6326262;28;20445;-76
2023/05/11 06:07:16;;;;;;;10.20;4.40;;;;;;;;;;6333832;28;20028;-76
2023/05/11 06:10:16;;;;;;;10.20;4.27;;;;;;;;;;6314104;28;20424;-75
2023/05/11 06:13:17;;;;;;;12.67;4.70;;;;;;;;;;6333252;28;20486;-75
2023/05/11 06:16:17;;;;;;;10.03;4.30;;;;;;;;;;6332360;28;20106;-75
2023/05/11 06:19:17;;;;;;;8.43;3.40;;;;;;;;;;6344616;28;20016;-75
2023/05/11 06:22:17;;;;;;;7.60;4.07;;;;;;;;;;6337231;28;20022;-75
2023/05/11 06:25:17;;;;;;;9.65;3.78;;;;;;;;;;6339542;28;20334;-76
2023/05/11 06:28:18;;;;;;;9.23;3.93;;;;;;;;;;6339329;28;20089;-76
2023/05/11 06:31:18;;;;;;;11.50;4.00;;;;;;;;;;6337245;28;20027;-76
2023/05/11 06:34:19;;;;;;;8.60;4.10;;;;;;;;;;6333091;28;20023;-76
2023/05/11 06:37:19;;;;;;;8.48;3.60;;;;;;;;;;6326365;28;20029;-76
2023/05/11 06:40:20;;;;;;;8.23;3.65;;;;;;;;;;6335667;28;20020;-75
2023/05/11 06:43:20;;;;;;;;;;;;;;;;;;6338904;28;20171;-75
2023/05/11 06:46:20;;;;;;;6.10;3.40;;;;;;;;;;6337524;28;19911;-76
2023/05/11 06:49:21;;;;;;;9.80;4.30;;;;;;;;;;6330422;28;20142;-76
2023/05/11 06:52:21;;;;;;;;;;;;;;;;;;6339005;27;20377;-76
2023/05/11 06:55:21;;;;;;;13.48;4.85;;;;;;;;;;6339333;28;19919;-77
2023/05/11 06:58:21;;;;;;;;;;;;;;;;;;6346377;28;20107;-77
2023/05/11 07:01:22;;;;;;;15.73;5.00;;;;;;;;;;6345188;27;20315;-77
2023/05/11 07:04:22;;;;;;;;;;;;;;;;;;6340627;27;20299;-77
2023/05/11 07:07:22;;;;;;;9.02;3.83;;;;;;;;;;6335224;27;19919;-77
2023/05/11 07:10:23;;;;;;;;;;;;;;;;;;6339357;28;20012;-77
2023/05/11 07:13:23;;;;;;;8.73;3.87;;;;;;;;;;6330703;28;19915;-77
2023/05/11 07:16:23;;;;;;;10.83;4.67;;;;;;;;;;6326942;28;20081;-77
2023/05/11 07:19:23;;;;;;;11.03;4.53;;;;;;;;;;6343627;27;20028;-77
2023/05/11 07:22:24;;;;;;;8.02;4.28;;;;;;;;;;6347422;27;20565;-77
2023/05/11 07:25:24;;;;;;;9.67;3.80;;;;;;;;;;6326395;28;20016;-77
2023/05/11 07:28:24;;;;;;;8.77;3.55;;;;;;;;;;6337050;28;20077;-77
2023/05/11 07:31:24;;;;;;;6.87;3.20;;;;;;;;;;6341188;27;20024;-77
2023/05/11 07:34:25;;;;;;;8.60;3.20;;;;;;;;;;6345502;28;20023;-77
2023/05/11 07:37:25;;;;;;;7.77;3.67;;;;;;;;;;6331295;28;20027;-76
2023/05/11 07:40:25;;;;;;;4.55;2.83;;;;;;;;;;6340334;27;20265;-77
2023/05/11 07:43:25;;;;;;;7.07;2.97;;;;;;;;;;6336897;28;20704;-76
2023/05/11 07:46:25;;;;;;;8.87;3.20;;;;;;;;;;6336003;28;20078;-78
2023/05/11 07:49:26;;;;;;;7.53;3.20;;;;;;;;;;6327321;28;20093;-78
2023/05/11 07:52:26;;;;;;;7.95;3.15;;;;;;;;;;6330342;27;20477;-78
2023/05/11 07:55:29;;;;;;;7.60;3.45;;;;;;;;;;6334776;27;20024;-78
2023/05/11 07:58:29;;;;;;;6.28;3.30;;;;;;;;;;6324124;28;20034;-78
2023/05/11 08:01:30;;;;;;;7.73;2.97;;;;;;;;;;6334662;27;20047;-76
2023/05/11 08:04:30;;;;;;;6.65;3.25;;;;;;;;;;6346737;27;20081;-77
2023/05/11 08:07:30;;;;;;;7.32;3.30;;;;;;;;;;6344033;27;20491;-78
2023/05/11 08:10:30;;;;;;;5.45;2.63;;;;;;;;;;6328732;27;20032;-78
2023/05/11 08:13:31;;;;;;;5.32;2.53;;;;;;;;;;6338701;28;20035;-78
2023/05/11 08:16:31;;;;;;;4.43;2.70;;;;;;;;;;6321483;28;20386;-78
2023/05/11 08:19:31;;;;;;;7.05;3.15;;;;;;;;;;6334645;28;20051;-78
2023/05/11 08:22:31;;;;;;;5.93;3.50;;;;;;;;;;6329867;28;20019;-78
2023/05/11 08:25:32;;;;;;;;;;;;;;;;;;6340917;28;20805;-78
2023/05/11 08:28:32;;;;;;;9.23;3.90;;;;;;;;;;6331216;28;19957;-78
2023/05/11 08:31:33;;;;;;;6.50;3.40;;;;;;;;;;6329905;28;20470;-77
2023/05/11 08:34:33;;;;;;;7.00;3.30;;;;;;;;;;6344060;28;20459;-77
2023/05/11 08:37:33;;;;;;;8.23;3.38;;;;;;;;;;6334769;28;20050;-77
2023/05/11 08:40:34;;;;;;;12.40;3.50;;;;;;;;;;6337455;28;20020;-77
2023/05/11 08:43:35;;;;;;;5.43;3.53;;;;;;;;;;6334870;27;20110;-77
2023/05/11 08:46:38;;;;;;;3.88;2.22;;;;;;;;;;6336780;28;20020;-77
2023/05/11 08:49:39;;;;;;;7.63;3.55;;;;;;;;;;6337214;28;20770;-77
2023/05/11 08:52:39;;;;;;;8.50;3.23;;;;;;;;;;6334408;28;20050;-77
2023/05/11 08:55:41;;;;;;;5.30;3.50;;;;;;;;;;6332066;28;20430;-77
2023/05/11 08:58:41;;;;;;;6.82;3.40;;;;;;;;;;6340941;28;20019;-77
2023/05/11 09:01:42;;;;;;;5.85;3.50;;;;;;;;;;6326152;28;20490;-77
2023/05/11 09:04:43;;;;;;;5.83;2.93;;;;;;;;;;6338191;28;20800;-77
2023/05/11 09:07:45;;;;;;;5.63;2.42;;;;;;;;;;6332331;28;20547;-77
2023/05/11 09:10:45;;;;;;;4.35;2.30;;;;;;;;;;6334426;28;20024;-77
2023/05/11 09:13:45;;;;;;;3.33;2.00;;;;;;;;;;6339312;28;20031;-76
2023/05/11 09:16:46;;;;;;;4.03;1.90;;;;;;;;;;6343912;28;20035;-76
2023/05/11 09:19:56;;;;;;;4.73;2.10;;;;;;;;;;6333673;28;20496;-76
2023/05/11 09:22:57;;;;;;;3.33;2.20;;;;;;;;;;6320264;28;20062;-77
2023/05/11 09:25:57;;;;;;;3.05;2.10;;;;;;;;;;6309873;28;20036;-76
2023/05/11 09:28:58;;;;;;;5.27;1.93;;;;;;;;;;6327557;27;20036;-76
2023/05/11 09:31:58;;;;;;;4.93;2.28;;;;;;;;;;6328575;27;20144;-76
2023/05/11 09:35:14;;;;;;;5.57;1.98;;;;;;;;;;6325240;27;20074;-76
2023/05/11 09:38:15;;;;;;;3.15;1.88;;;;;;;;;;6334281;27;20027;-74
2023/05/11 09:41:18;;;;;;;4.85;2.15;;;;;;;;;;6329475;27;20020;-76
2023/05/11 09:44:19;;;;;;;3.65;2.22;;;;;;;;;;6333840;28;20848;-76
2023/05/11 09:47:21;;;;;;;5.33;1.93;;;;;;;;;;6322041;28;20027;-76
2023/05/11 09:50:21;;;;;;;5.13;1.83;;;;;;;;;;6329402;28;20071;-75
2023/05/11 09:53:32;;;;;;;4.10;1.93;;;;;;;;;;6325993;27;20088;-75
2023/05/11 09:56:43;;;;;;;3.08;1.70;;;;;;;;;;6331286;28;20031;-76
2023/05/11 09:59:43;;;;;;;8.98;2.47;;;;;;;;;;6332086;28;20040;-76
2023/05/11 10:02:44;;;;;;;7.47;2.00;;;;;;;;;;6327927;28;20497;-76
2023/05/11 10:05:59;;;;;;;5.70;1.93;;;;;;;;;;6333251;28;20141;-76
2023/05/11 10:09:07;;;;;;;2.47;2.13;;;;;;;;;;6337292;28;20503;-76
2023/05/11 10:12:08;;;;;;;6.43;2.10;;;;;;;;;;6336427;28;20475;-75
2023/05/11 10:15:08;;;;;;;4.53;2.37;;;;;;;;;;6331986;28;20027;-75
2023/05/11 10:18:09;;;;;;;4.20;1.70;;;;;;;;;;6311781;28;20028;-76
2023/05/11 10:21:10;;;;;;;3.63;1.70;;;;;;;;;;6337696;28;20405;-75
2023/05/11 10:24:10;;;;;;;2.10;1.50;;;;;;;;;;6319214;28;20028;-75
2023/05/11 10:27:11;;;;;;;9.13;2.60;;;;;;;;;;6327306;28;20035;-75
2023/05/11 10:30:12;;;;;;;5.53;1.80;;;;;;;;;;6331347;28;20030;-75
2023/05/11 10:33:12;;;;;;;4.15;1.83;;;;;;;;;;6330343;28;20028;-75
2023/05/11 10:36:13;;;;;;;3.20;1.63;;;;;;;;;;6328134;28;20023;-75
2023/05/11 10:39:13;;;;;;;5.23;2.07;;;;;;;;;;6339012;28;20376;-75
2023/05/11 10:42:29;;;;;;;2.17;1.50;;;;;;;;;;6326003;28;20107;-75
2023/05/11 10:45:50;;;;;;;3.13;1.95;;;;;;;;;;6331592;28;20074;-75
2023/05/11 10:49:21;;;;;;;5.70;2.53;;;;;;;;;;6332950;28;20047;-75
2023/05/11 10:52:30;;;;;;;3.92;2.00;;;;;;;;;;6262604;28;20028;-76
2023/05/11 10:55:42;;;;;;;3.08;1.63;;;;;;;;;;6324326;28;20047;-75
2023/05/11 10:58:52;;;;;;;6.78;2.00;;;;;;;;;;6332376;28;20022;-76
2023/05/11 11:01:57;;;;;;;4.77;2.10;;;;;;;;;;6338399;28;20043;-76
2023/05/11 11:05:01;;;;;;;3.17;1.85;;;;;;;;;;6325710;28;20024;-76
2023/05/11 11:08:04;;;;;;;2.40;1.50;;;;;;;;;;6334128;28;20052;-76
2023/05/11 11:11:25;;;;;;;4.85;1.92;;;;;;;;;;6311547;28;20028;-75
2023/05/11 11:14:45;;;;;;;4.43;2.17;;;;;;;;;;6335621;27;20019;-76
2023/05/11 11:17:46;;;;;;;3.75;2.00;;;;;;;;;;6337457;27;20024;-76
2023/05/11 11:20:47;;;;;;;5.07;2.40;;;;;;;;;;6319273;28;20030;-76
2023/05/11 11:23:48;;;;;;;;;;;;;;;;;;6335750;28;20023;-76
2023/05/11 11:26:49;;;;;;;3.40;2.05;;;;;;;;;;6333780;28;19935;-76
2023/05/11 11:30:08;;;;;;;4.90;1.90;;;;;;;;;;6332464;28;20466;-77
2023/05/11 11:33:08;;;;;;;7.47;2.22;;;;;;;;;;6338418;27;20096;-76
2023/05/11 11:36:08;;;;;;;4.25;2.72;;;;;;;;;;6332690;28;20019;-76
2023/05/11 11:39:09;;;;;;;5.20;2.23;;;;;;;;;;6313543;28;20170;-76
2023/05/11 11:42:10;;;;;;;7.47;2.23;;;;;;;;;;6333768;28;20016;-76
2023/05/11 11:45:27;;;;;;;2.92;2.20;;;;;;;;;;6331424;27;20764;-76
2023/05/11 11:48:34;;;;;;;9.43;2.97;;;;;;;;;;6339358;28;20338;-76
2023/05/11 11:51:39;;;;;;;4.35;2.17;;;;;;;;;;6332149;28;20143;-76
2023/05/11 11:54:39;;;;;;;6.47;2.45;;;;;;;;;;6329497;28;20077;-77
2023/05/11 11:57:45;;;;;;;2.50;2.13;;;;;;;;;;6335406;28;20032;-76
2023/05/11 12:00:46;;;;;;;4.25;2.30;;;;;;;;;;6331046;27;20505;-76
2023/05/11 12:03:52;;;;;;;6.17;1.90;;;;;;;;;;6317304;28;20016;-76
2023/05/11 12:06:57;;;;;;;3.58;2.17;;;;;;;;;;6325357;28;20424;-76
2023/05/11 12:09:58;;;;;;;4.28;2.17;;;;;;;;;;6316003;27;20042;-77
2023/05/11 12:12:58;;;;;;;6.55;2.20;;;;;;;;;;6329292;28;20042;-76
2023/05/11 12:16:08;;;;;;;5.47;2.70;;;;;;;;;;6330423;27;20024;-77
2023/05/11 12:19:08;;;;;;;2.50;2.00;;;;;;;;;;6335753;28;20028;-76
2023/05/11 12:22:09;;;;;;;6.40;2.67;;;;;;;;;;6319262;28;20027;-76
2023/05/11 12:25:11;;;;;;;4.65;2.03;;;;;;;;;;6330086;28;20023;-77
2023/05/11 12:28:16;;;;;;;3.45;2.10;;;;;;;;;;6333132;27;20020;-77
2023/05/11 12:31:17;;;;;;;6.35;2.33;;;;;;;;;;6310027;28;20032;-76
2023/05/11 12:34:18;;;;;;;5.05;2.10;;;;;;;;;;6338048;27;20027;-76
2023/05/11 12:37:18;;;;;;;;;;;;;;;;;;6329287;27;20023;-76
2023/05/11 12:40:19;;;;;;;3.08;2.15;;;;;;;;;;6332768;28;19907;-76
2023/05/11 12:43:20;;;;;;;5.17;2.20;;;;;;;;;;6328319;28;20313;-76
2023/05/11 12:46:21;;;;;;;4.45;1.98;;;;;;;;;;6329818;28;20024;-76
2023/05/11 12:49:22;;;;;;;2.80;1.87;;;;;;;;;;6322327;27;20126;-76
2023/05/11 12:52:23;;;;;;;8.68;3.03;;;;;;;;;;6328367;27;20364;-76
2023/05/11 12:55:27;;;;;;;6.33;2.80;;;;;;;;;;6324542;28;20054;-76
2023/05/11 12:58:34;;;;;;;3.47;2.33;;;;;;;;;;6333005;28;20342;-76
2023/05/11 13:01:35;;;;;;;6.20;2.35;;;;;;;;;;6318809;28;20172;-76
2023/05/11 13:04:36;;;;;;;3.22;2.05;;;;;;;;;;6327730;28;20044;-76
2023/05/11 13:07:36;;;;;;;2.75;1.80;;;;;;;;;;6328444;28;20030;-76
2023/05/11 13:10:36;;;;;;;5.33;2.33;;;;;;;;;;6333589;28;20110;-76
2023/05/11 13:13:36;;;;;;;4.83;2.03;;;;;;;;;;6332540;28;20028;-76
2023/05/11 13:16:37;;;;;;;7.03;2.10;;;;;;;;;;6336224;28;20481;-76
2023/05/11 13:19:38;;;;;;;6.15;2.88;;;;;;;;;;6330924;28;20020;-76
2023/05/11 13:22:38;;;;;;;8.98;2.75;;;;;;;;;;6301766;28;20024;-76
2023/05/11 13:25:44;;;;;;;4.18;2.00;;;;;;;;;;6318519;28;20063;-76
2023/05/11 13:28:44;;;;;;;6.22;2.25;;;;;;;;;;6330219;28;20023;-76
2023/05/11 13:31:48;;;;;;;2.13;1.67;;;;;;;;;;6334204;28;20394;-76
2023/05/11 13:34:49;;;;;;;5.70;1.50;;;;;;;;;;6321086;28;20028;-76
2023/05/11 13:37:49;;;;;;;2.90;1.90;;;;;;;;;;6325714;28;20476;-77
2023/05/11 13:40:50;;;;;;;3.50;1.83;;;;;;;;;;6339829;28;20787;-76
2023/05/11 13:43:50;;;;;;;3.17;1.90;;;;;;;;;;6325557;28;20028;-76
2023/05/11 13:46:50;;;;;;;5.80;2.00;;;;;;;;;;6326935;28;21083;-76
2023/05/11 13:49:52;;;;;;;3.13;2.07;;;;;;;;;;6322165;28;20216;-76
2023/05/11 13:52:52;;;;;;;4.18;1.85;;;;;;;;;;6332871;27;20038;-76
2023/05/11 13:55:52;;;;;;;4.47;2.38;;;;;;;;;;6330531;28;20027;-75
2023/05/11 13:58:53;;;;;;;3.37;1.70;;;;;;;;;;6337140;28;20377;-76
2023/05/11 14:01:54;;;;;;;6.00;2.40;;;;;;;;;;6328436;28;20032;-76
2023/05/11 14:04:55;;;;;;;4.45;1.77;;;;;;;;;;6330403;28;20055;-76
2023/05/11 14:07:55;;;;;;;3.73;1.63;;;;;;;;;;6320595;28;20028;-77
2023/05/11 14:10:55;;;;;;;3.87;1.83;;;;;;;;;;6326787;28;20233;-76
2023/05/11 14:13:55;;;;;;;2.78;1.70;;;;;;;;;;6314372;28;20545;-76
2023/05/11 14:16:55;;;;;;;6.63;2.03;;;;;;;;;;6320551;28;20060;-76
2023/05/11 14:19:56;;;;;;;5.17;1.27;;;;;;;;;;6325790;28;20012;-77
2023/05/11 14:22:57;;;;;;;5.28;1.95;;;;;;;;;;6332263;28;20559;-76
2023/05/11 14:25:58;;;;;;;6.20;2.20;;;;;;;;;;6324817;28;20031;-76
2023/05/11 14:28:58;;;;;;;5.67;1.90;;;;;;;;;;6329600;28;20155;-76
2023/05/11 14:31:58;;;;;;;3.53;1.60;;;;;;;;;;6338855;28;20039;-76
2023/05/11 14:34:58;;;;;;;2.97;1.70;;;;;;;;;;6328091;28;20059;-77
2023/05/11 14:37:59;;;;;;;3.17;1.57;;;;;;;;;;6326641;28;20476;-76
2023/05/11 14:41:00;;;;;;;3.85;1.42;;;;;;;;;;6337095;27;20020;-76
2023/05/11 14:44:01;;;;;;;1.67;1.58;;;;;;;;;;6325069;27;20082;-76
2023/05/11 14:47:02;;;;;;;5.33;2.57;;;;;;;;;;6340688;27;20473;-77
2023/05/11 14:50:02;;;;;;;9.00;2.95;;;;;;;;;;6325475;27;20059;-76
2023/05/11 14:53:02;;;;;;;9.87;6.10;;;;;;;;;;6342742;27;20547;-76
2023/05/11 14:56:03;;;;;;;4.07;1.90;;;;;;;;;;6341339;27;20039;-77
2023/05/11 14:59:03;;;;;;;17.73;10.27;;;;;;;;;;6335970;27;20046;-77
2023/05/11 15:02:03;;;;;;;9.00;4.57;;;;;;;;;;6314009;28;20108;-76
2023/05/11 15:05:07;;;;;;;18.87;11.87;;;;;;;;;;6336892;27;20020;-76
2023/05/11 15:08:08;;;;;;;17.63;10.07;;;;;;;;;;6337178;27;20030;-76
2023/05/11 15:11:08;;;;;;;;;;;;;;;;;;6341147;27;20024;-76
2023/05/11 15:14:09;;;;;;;11.15;5.07;;;;;;;;;;6336532;27;20325;-76
2023/05/11 15:17:09;;;;;;;4.38;2.08;;;;;;;;;;6333997;27;20020;-76
2023/05/11 15:20:10;;;;;;;2.97;2.03;;;;;;;;;;6333298;28;20027;-76
2023/05/11 15:23:10;;;;;;;10.03;5.17;;;;;;;;;;6337654;27;20110;-76
2023/05/11 15:26:10;;;;;;;9.97;4.13;;;;;;;;;;6339742;27;20037;-77
2023/05/11 15:29:11;;;;;;;6.33;3.77;;;;;;;;;;6342105;28;20352;-77
2023/05/11 15:32:12;;;;;;;3.63;2.83;;;;;;;;;;6334588;27;20031;-77
2023/05/11 15:35:15;;;;;;;11.45;2.90;;;;;;;;;;6335735;27;20011;-77
2023/05/11 15:38:15;;;;;;;6.07;2.75;;;;;;;;;;6334565;27;20030;-76
2023/05/11 15:41:15;;;;;;;7.20;2.30;;;;;;;;;;6328244;27;20036;-77
2023/05/11 15:44:16;;;;;;;1.63;1.50;;;;;;;;;;6334085;27;20027;-76
2023/05/11 15:47:16;;;;;;;6.13;1.97;;;;;;;;;;6335268;27;20027;-76
2023/05/11 15:50:16;;;;;;;6.23;1.67;;;;;;;;;;6335894;28;20058;-76
2023/05/11 15:53:17;;;;;;;5.53;2.55;;;;;;;;;;6325653;28;20559;-76
2023/05/11 15:56:17;;;;;;;8.33;2.30;;;;;;;;;;6339298;28;20012;-76
2023/05/11 15:59:17;;;;;;;5.53;2.53;;;;;;;;;;6332354;27;20100;-76
2023/05/11 16:02:18;;;;;;;5.90;2.87;;;;;;;;;;6328611;27;20020;-76
2023/05/11 16:05:18;;;;;;;3.23;2.13;;;;;;;;;;6330539;27;20018;-76
2023/05/11 16:08:18;;;;;;;4.43;2.10;;;;;;;;;;6329320;28;20084;-76
2023/05/11 16:11:19;;;;;;;5.37;2.97;;;;;;;;;;6340555;28;20030;-76
2023/05/11 16:14:20;;;;;;;5.00;1.83;;;;;;;;;;6325543;28;20020;-76
2023/05/11 16:17:20;;;;;;;4.03;2.00;;;;;;;;;;6330882;28;20432;-76
2023/05/11 16:20:20;;;;;;;9.52;2.08;;;;;;;;;;6337066;28;20019;-76
2023/05/11 16:23:21;;;;;;;4.77;2.80;;;;;;;;;;6327140;28;20019;-76
2023/05/11 16:26:22;;;;;;;3.53;2.13;;;;;;;;;;6301655;28;20012;-76
2023/05/11 16:29:22;;;;;;;7.57;2.75;;;;;;;;;;6333369;28;20023;-77
2023/05/11 16:32:22;;;;;;;5.23;2.33;;;;;;;;;;6337100;28;20553;-77
2023/05/11 16:35:22;;;;;;;7.77;2.00;;;;;;;;;;6337303;28;20031;-76
2023/05/11 16:38:23;;;;;;;7.03;2.27;;;;;;;;;;6338839;28;20020;-76
2023/05/11 16:41:27;;;;;;;9.07;1.93;;;;;;;;;;6333028;28;20555;-77
2023/05/11 16:44:27;;;;;;;4.95;1.65;;;;;;;;;;6328638;28;20023;-77
2023/05/11 16:47:27;;;;;;;4.50;2.47;;;;;;;;;;6324482;28;20020;-77
2023/05/11 16:50:28;;;;;;;5.10;2.33;;;;;;;;;;6339925;27;20075;-76
2023/05/11 16:53:28;;;;;;;5.70;2.30;;;;;;;;;;6317413;28;20024;-76
2023/05/11 16:56:28;;;;;;;4.57;2.40;;;;;;;;;;6331222;28;21066;-76
2023/05/11 16:59:31;;;;;;;3.85;2.53;;;;;;;;;;6333455;28;20071;-76
2023/05/11 17:02:32;;;;;;;7.70;2.25;;;;;;;;;;6319463;28;20052;-76
2023/05/11 17:05:32;;;;;;;2.87;1.90;;;;;;;;;;6318307;28;20470;-76
2023/05/11 17:08:33;;;;;;;5.03;2.63;;;;;;;;;;6330621;27;20020;-76
2023/05/11 17:11:33;;;;;;;3.60;2.37;;;;;;;;;;6331892;27;20502;-77
2023/05/11 17:14:33;;;;;;;8.00;2.70;;;;;;;;;;6332643;27;20070;-77
2023/05/11 17:17:34;;;;;;;4.00;2.47;;;;;;;;;;6335513;28;20454;-77
2023/05/11 17:20:34;;;;;;;3.20;2.33;;;;;;;;;;6337705;28;20557;-78
2023/05/11 17:23:34;;;;;;;6.07;2.43;;;;;;;;;;6329702;28;20706;-78
2023/05/11 17:26:35;;;;;;;3.63;2.67;;;;;;;;;;6331441;28;20024;-78
2023/05/11 17:29:35;;;;;;;6.13;2.53;;;;;;;;;;6334079;27;20401;-78
2023/05/11 17:32:35;;;;;;;5.13;2.40;;;;;;;;;;6328573;28;20023;-78
2023/05/11 17:35:37;;;;;;;4.67;2.03;;;;;;;;;;6331565;28;20756;-78
2023/05/11 17:38:37;;;;;;;5.35;3.00;;;;;;;;;;6325496;28;20158;-76
2023/05/11 17:41:38;;;;;;;4.53;2.63;;;;;;;;;;6322520;28;20020;-75
2023/05/11 17:44:38;;;;;;;4.93;2.53;;;;;;;;;;6326562;28;20062;-77
2023/05/11 17:47:38;;;;;;;3.10;2.50;;;;;;;;;;6328339;28;20028;-76
2023/05/11 17:50:38;;;;;;;4.27;2.73;;;;;;;;;;6331946;28;20035;-76
2023/05/11 17:53:38;;;;;;;6.53;2.70;;;;;;;;;;6310177;28;20505;-76
2023/05/11 17:56:39;;;;;;;8.13;3.20;;;;;;;;;;6333856;28;20090;-76
2023/05/11 17:59:39;;;;;;;3.60;2.30;;;;;;;;;;6324163;28;20020;-77
2023/05/11 18:02:39;;;;;;;4.35;2.75;;;;;;;;;;6335585;28;20777;-77
2023/05/11 18:05:39;;;;;;;5.87;2.77;;;;;;;;;;6317341;28;20032;-76
2023/05/11 18:08:40;;;;;;;5.33;3.43;;;;;;;;;;6334399;28;20389;-76